메인 페이지
METAR-TAF:

METAR-TAF

공항 :

Valdosta Regional Airport

Valdosta, 조지아, 미국

위도: 30-47N, 경도: 083-17W, 고도: 62m

현재 날씨관측

예보는 1 시간 3분 전, 22:53시(UTC)에 발표되었습니다.
무풍
온도 11°C
습도 58%
기압 1027 hPa
시정: 16.1km
맑음

METAR: KVLD 192253Z 00000KT 10SM CLR 11/03 A3034 RMK AO2 SLP283 T01110028

시각: 18:56 (23:56 UTC)

예보

예보는 34분 전, 23:22시(UTC)에 발표되었습니다.
예보 대상 시간: 20일 00시부터 20일 24시까지 (UTC)
여러 방향의 바람 3kt
시정: 10km
맑음
20일 1400시부터 (UTC)
북서5kt
시정: 10km
고도 10000ft 상공 구름 많음

TAF: KVLD 192322Z 2000/2024 VRB03KT P6SM SKC FM201400 32005KT P6SM BKN100

4,000개 이상의 공항 관측 자료 및 예보 (METAR 및 TAF 보고).

지도상에서 검색 가능한 기상관측소가 노란 점과 빨간 점으로 표시되어 있습니다.

기상관측소 명을 보려면 표시 위로 마우스를 이동하세요.

날씨 관측과 예보를 보려면 클릭하세요.

지도 변경 : 확대하려면 엑스 표시가 있는 녹색 버튼, 축소하려면 빼기 표시가 있는 녹색 버튼, 다음 페이지의 지도를 보려면 녹색 화살표를 클릭하세요.


METAR-TAF: